Time;durP1;ratioP1;P1;durP2;ratioP2;P2;SDS_P1;SDS_P2;PMS_P1;PMS_P2;Temp;Humidity;BMP_temperature;BMP_pressure;BME280_temperature;BME280_humidity;BME280_pressure;Samples;Min_cycle;Max_cycle;Signal;HPM_P1;HPM_P2
2023/07/12 00:01:45;;;;;;;12.70;5.83;;;21.20;99.90;;;21.82;100.00;97535.94;4958202;28;20464;-81
2023/07/12 00:04:16;;;;;;;10.10;6.30;;;21.20;99.90;;;21.88;100.00;97532.16;4956334;28;20470;-81
2023/07/12 00:06:45;;;;;;;11.87;6.80;;;21.10;99.90;;;21.86;100.00;97547.63;4963611;28;20862;-81
2023/07/12 00:09:15;;;;;;;8.60;5.40;;;21.10;99.90;;;21.82;100.00;97529.81;4957217;28;21212;-81
2023/07/12 00:11:44;;;;;;;5.60;4.77;;;21.10;99.90;;;21.82;100.00;97538.59;4963258;28;20496;-81
2023/07/12 00:14:15;;;;;;;8.33;5.70;;;21.10;99.90;;;21.81;100.00;97555.63;4960976;28;20517;-80
2023/07/12 00:16:44;;;;;;;7.87;5.30;;;21.10;99.90;;;21.78;100.00;97544.72;4956177;28;20468;-81
2023/07/12 00:19:17;;;;;;;7.70;4.83;;;21.10;99.90;;;21.79;100.00;97555.09;4960065;28;20492;-81
2023/07/12 00:21:47;;;;;;;10.43;5.30;;;21.10;99.90;;;21.80;100.00;97556.69;4961511;28;20583;-81
2023/07/12 00:24:17;;;;;;;10.17;6.20;;;21.10;99.90;;;21.77;100.00;97551.09;4962438;28;20542;-80
2023/07/12 00:26:47;;;;;;;11.53;5.87;;;21.10;99.90;;;21.80;100.00;97553.22;4963122;28;20472;-80
2023/07/12 00:29:17;;;;;;;10.23;5.03;;;21.10;99.90;;;21.83;100.00;97560.69;4958540;28;20458;-80
2023/07/12 00:31:46;;;;;;;7.67;4.90;;;21.10;99.90;;;21.82;100.00;97561.75;4958124;28;20473;-81
2023/07/12 00:34:17;;;;;;;9.47;5.27;;;21.10;99.90;;;21.79;100.00;97565.75;4961307;28;20470;-81
2023/07/12 00:36:46;;;;;;;13.23;5.83;;;21.10;99.90;;;21.79;100.00;97564.97;4959422;28;20989;-81
2023/07/12 00:39:15;;;;;;;27.27;5.27;;;21.10;99.90;;;21.82;100.00;97567.06;4959098;28;20542;-81
2023/07/12 00:42:02;;;;;;;8.40;5.53;;;21.10;99.90;;;21.81;100.00;97565.47;4963991;28;20549;-81
2023/07/12 00:44:38;;;;;;;34.40;5.70;;;21.10;99.90;;;21.79;100.00;97572.94;4962904;28;20495;-84
2023/07/12 00:47:13;;;;;;;12.00;6.37;;;21.10;99.90;;;21.78;100.00;97568.69;4957642;28;20461;-81
2023/07/12 00:49:46;;;;;;;8.03;5.60;;;21.10;99.90;;;21.70;100.00;97569.22;4962809;28;20484;-81
2023/07/12 00:52:18;;;;;;;9.87;6.23;;;21.20;99.90;;;21.69;100.00;97567.66;4960354;28;20465;-81
2023/07/12 00:54:53;;;;;;;7.20;5.40;;;21.10;99.90;;;21.68;100.00;97566.84;4961963;28;20461;-81
2023/07/12 00:57:25;;;;;;;10.90;6.27;;;21.10;99.90;;;21.78;100.00;97568.69;4963136;28;20970;-81
2023/07/12 01:00:00;;;;;;;11.30;6.60;;;21.10;99.90;;;21.74;100.00;97565.75;4962039;28;20465;-81
2023/07/12 01:02:30;;;;;;;7.23;5.90;;;21.10;99.90;;;21.75;100.00;97566.56;4961341;28;20592;-81
2023/07/12 01:05:03;;;;;;;18.20;6.00;;;21.10;99.90;;;21.75;100.00;97563.91;4961571;28;20461;-80
2023/07/12 01:07:34;;;;;;;12.73;6.50;;;21.10;99.90;;;21.73;100.00;97558.06;4963506;28;20476;-81
2023/07/12 01:10:03;;;;;;;10.30;7.07;;;21.20;99.90;;;21.70;100.00;97561.22;4962944;28;20469;-81
2023/07/12 01:12:33;;;;;;;15.63;6.40;;;21.20;99.90;;;21.77;100.00;97559.09;4959819;28;20513;-81
2023/07/12 01:15:04;;;;;;;13.63;6.50;;;21.20;99.90;;;21.80;100.00;97547.88;4960146;28;20488;-81
2023/07/12 01:17:33;;;;;;;10.93;5.97;;;21.10;99.90;;;21.85;100.00;97551.34;4958923;28;20473;-81
2023/07/12 01:20:06;;;;;;;12.43;6.33;;;21.10;99.90;;;21.86;100.00;97552.97;4957206;28;20504;-80
2023/07/12 01:22:37;;;;;;;17.90;7.83;;;21.10;99.90;;;21.87;100.00;97551.06;4960177;28;20461;-81
2023/07/12 01:25:09;;;;;;;16.27;6.83;;;21.20;99.90;;;21.75;100.00;97546.06;4959687;28;20702;-81
2023/07/12 01:27:37;;;;;;;10.50;7.43;;;21.30;99.90;;;21.82;100.00;97546.56;4963296;28;20464;-80
2023/07/12 01:30:09;;;;;;;9.33;6.80;;;21.20;99.90;;;21.84;100.00;97543.63;4961589;28;20924;-80
2023/07/12 01:32:41;;;;;;;9.70;6.67;;;21.20;99.90;;;21.80;100.00;97540.72;4961270;28;20460;-81
2023/07/12 01:35:11;;;;;;;13.03;7.17;;;21.20;99.90;;;21.82;100.00;97535.13;4960293;28;20472;-81
2023/07/12 01:37:42;;;;;;;23.93;8.10;;;21.20;99.90;;;21.87;100.00;97535.91;4961396;28;20464;-81
2023/07/12 01:40:14;;;;;;;12.50;6.87;;;21.20;99.90;;;21.88;100.00;97524.19;4962313;28;20498;-81
2023/07/12 01:42:44;;;;;;;13.07;7.40;;;21.20;99.90;;;21.90;100.00;97513.31;4965365;28;20473;-81
2023/07/12 01:45:12;;;;;;;12.80;6.90;;;21.20;99.90;;;21.89;100.00;97515.13;4961056;28;20831;-81
2023/07/12 01:47:42;;;;;;;23.60;7.73;;;21.20;99.90;;;21.87;100.00;97505.81;4960894;28;20555;-81
2023/07/12 01:50:11;;;;;;;11.93;7.13;;;21.20;99.90;;;21.82;100.00;97506.63;4960449;28;20997;-81
2023/07/12 01:52:43;;;;;;;16.93;6.40;;;21.20;99.90;;;21.81;100.00;97501.56;4961902;28;20476;-81
2023/07/12 01:55:13;;;;;;;12.90;6.93;;;21.20;99.90;;;21.83;100.00;97502.13;4961468;28;20460;-81
2023/07/12 01:57:41;;;;;;;11.90;6.93;;;21.20;99.90;;;21.82;100.00;97509.31;4961824;28;20467;-81
2023/07/12 02:00:13;;;;;;;15.03;6.90;;;21.10;99.90;;;21.80;100.00;97495.44;4963200;28;20489;-81
2023/07/12 02:02:43;;;;;;;11.50;7.80;;;21.10;99.90;;;21.81;100.00;97491.72;4957586;28;20508;-81
2023/07/12 02:05:13;;;;;;;16.60;7.20;;;21.10;99.90;;;21.77;100.00;97495.19;4958757;28;20806;-81
2023/07/12 02:07:44;;;;;;;10.57;6.70;;;21.10;99.90;;;21.74;100.00;97498.41;4960250;28;20492;-81
2023/07/12 02:10:19;;;;;;;10.43;7.20;;;21.00;99.90;;;21.72;100.00;97498.69;4959553;28;20834;-81
2023/07/12 02:12:50;;;;;;;10.97;7.20;;;21.00;99.90;;;21.69;100.00;97499.25;4959754;28;21938;-80
2023/07/12 02:15:20;;;;;;;19.37;8.97;;;21.00;99.90;;;21.68;100.00;97500.31;4962408;28;20461;-81
2023/07/12 02:17:50;;;;;;;10.23;6.40;;;21.00;99.90;;;21.67;100.00;97496.03;4961977;28;20917;-80
2023/07/12 02:20:21;;;;;;;7.47;5.63;;;20.90;99.90;;;21.60;100.00;97500.84;4961108;28;20473;-81
2023/07/12 02:22:54;;;;;;;10.37;5.90;;;20.90;99.90;;;21.63;100.00;97488.84;4961135;28;20484;-80
2023/07/12 02:25:23;;;;;;;20.03;7.07;;;20.90;99.90;;;21.57;100.00;97494.22;4961494;28;20469;-81
2023/07/12 02:27:53;;;;;;;8.80;6.80;;;20.90;99.90;;;21.57;100.00;97496.88;4960069;28;20499;-81
2023/07/12 02:30:24;;;;;;;9.73;6.93;;;20.80;99.90;;;21.50;100.00;97495.56;4962682;28;20481;-80
2023/07/12 02:32:56;;;;;;;8.60;5.87;;;20.90;99.90;;;21.50;100.00;97491.03;4961929;28;20839;-81
2023/07/12 02:35:29;;;;;;;10.87;6.10;;;20.80;99.90;;;21.51;100.00;97497.97;4961285;28;20973;-81
2023/07/12 02:38:02;;;;;;;10.97;6.73;;;20.80;99.90;;;21.46;100.00;97494.50;4964573;28;20921;-81
2023/07/12 02:40:32;;;;;;;12.27;6.27;;;20.80;99.90;;;21.47;100.00;97496.91;4964164;28;20463;-81
2023/07/12 02:43:02;;;;;;;9.47;6.80;;;20.80;99.90;;;21.48;100.00;97493.19;4958348;28;20488;-81
2023/07/12 02:45:32;;;;;;;15.23;5.80;;;20.70;99.90;;;21.44;100.00;97494.78;4961678;28;20476;-81
2023/07/12 02:48:03;;;;;;;11.00;7.07;;;20.70;99.90;;;21.47;100.00;97496.91;4965316;28;21083;-81
2023/07/12 02:50:32;;;;;;;11.13;5.77;;;20.70;99.90;;;21.48;100.00;97493.19;4963620;28;21163;-81
2023/07/12 02:53:16;;;;;;;14.10;6.30;;;20.70;99.90;;;21.48;100.00;97493.19;4963895;28;20884;-81
2023/07/12 02:55:49;;;;;;;10.90;7.07;;;20.70;99.90;;;21.46;100.00;97495.31;4961171;28;20461;-81
2023/07/12 02:58:20;;;;;;;14.50;6.57;;;20.70;99.90;;;21.47;100.00;97486.25;4964570;28;20993;-81
2023/07/12 03:00:57;;;;;;;18.83;7.13;;;20.80;99.90;;;21.47;100.00;97486.25;4964499;28;20465;-80
2023/07/12 03:03:28;;;;;;;12.53;7.00;;;20.70;99.90;;;21.48;100.00;97481.75;4963296;28;20464;-81
2023/07/12 03:06:05;;;;;;;27.90;6.87;;;20.70;99.90;;;21.51;100.00;97483.84;4964771;28;20542;-81
2023/07/12 03:08:36;;;;;;;16.70;7.03;;;20.70;99.90;;;21.47;100.00;97491.56;4963941;28;20464;-81
2023/07/12 03:11:09;;;;;;;9.30;7.30;;;20.70;99.90;;;21.51;100.00;97483.84;4962454;28;20467;-80
2023/07/12 03:13:39;;;;;;;12.37;7.53;;;20.70;99.90;;;21.56;100.00;97486.47;4963382;28;20472;-85
2023/07/12 03:16:09;;;;;;;13.50;8.53;;;20.70;99.90;;;21.57;100.00;97486.22;4963347;28;20546;-81
2023/07/12 03:18:39;;;;;;;10.73;7.60;;;20.70;99.90;;;21.54;100.00;97491.28;4960225;28;20962;-81
2023/07/12 03:21:11;;;;;;;16.40;7.63;;;20.70;99.90;;;21.53;100.00;97487.81;4961825;28;20557;-81
2023/07/12 03:23:42;;;;;;;16.67;7.70;;;20.70;99.90;;;21.49;100.00;97486.78;4961119;28;20544;-81
2023/07/12 03:26:13;;;;;;;12.50;6.90;;;20.80;99.90;;;21.51;100.00;97497.97;4958671;28;20465;-81
2023/07/12 03:28:42;;;;;;;16.93;8.77;;;20.70;99.90;;;21.49;100.00;97497.41;4959427;28;20574;-81
2023/07/12 03:31:16;;;;;;;19.23;8.73;;;20.70;99.90;;;21.49;100.00;97500.06;4959476;28;20476;-82
2023/07/12 03:33:47;;;;;;;14.87;8.07;;;20.70;99.90;;;21.46;100.00;97497.97;4964299;28;20464;-81
2023/07/12 03:36:17;;;;;;;20.87;9.03;;;20.70;99.90;;;21.46;100.00;97502.47;4959357;28;20468;-82
2023/07/12 03:38:48;;;;;;;13.73;8.47;;;20.70;99.90;;;21.43;100.00;97490.53;4959477;28;20488;-80
2023/07/12 03:41:17;;;;;;;18.60;10.93;;;20.70;99.90;;;21.39;100.00;97505.41;4961975;28;20461;-81
2023/07/12 03:43:48;;;;;;;13.80;8.50;;;20.70;99.90;;;21.40;100.00;97517.66;4963293;28;20469;-81
2023/07/12 03:46:18;;;;;;;19.10;9.80;;;20.70;99.90;;;21.40;100.00;97533.63;4960368;28;20461;-81
2023/07/12 03:48:49;;;;;;;23.50;10.70;;;20.70;99.90;;;21.38;100.00;97530.44;4964217;28;20460;-81
2023/07/12 03:51:22;;;;;;;26.30;11.20;;;20.70;99.90;;;21.40;100.00;97538.94;4961339;28;20557;-80
2023/07/12 03:53:54;;;;;;;21.77;12.60;;;20.70;99.90;;;21.39;100.00;97553.31;4961190;28;20473;-81
2023/07/12 03:56:23;;;;;;;17.57;11.60;;;20.70;99.90;;;21.44;100.00;97553.31;4960658;28;20534;-80
2023/07/12 03:58:53;;;;;;;20.63;12.50;;;20.70;99.90;;;21.45;100.00;97562.09;4964102;28;20492;-80
2023/07/12 04:01:22;;;;;;;15.47;11.17;;;20.70;99.90;;;21.34;100.00;97563.97;4958942;28;20470;-81
2023/07/12 04:03:52;;;;;;;24.90;11.57;;;20.70;99.90;;;21.42;100.00;97570.59;4962956;28;20507;-80
2023/07/12 04:06:22;;;;;;;18.77;11.90;;;20.70;99.90;;;21.42;100.00;97571.41;4961949;28;20473;-81
2023/07/12 04:08:54;;;;;;;25.43;12.50;;;20.70;99.90;;;21.42;100.00;97582.03;4957401;28;21202;-85
2023/07/12 04:11:28;;;;;;;15.83;10.87;;;20.70;99.90;;;21.46;100.00;97575.13;4959457;28;21493;-81
2023/07/12 04:13:59;;;;;;;25.53;12.37;;;20.70;99.90;;;21.46;100.00;97584.97;4960006;28;20477;-80
2023/07/12 04:16:30;;;;;;;16.30;11.43;;;20.70;99.90;;;21.48;100.00;97580.19;4957419;28;20891;-81
2023/07/12 04:19:00;;;;;;;19.70;11.43;;;20.70;99.90;;;21.48;100.00;97573.00;4961336;28;20477;-81
2023/07/12 04:21:30;;;;;;;26.63;15.73;;;20.70;99.90;;;21.41;100.00;97577.81;4959905;28;20472;-80
2023/07/12 04:24:00;;;;;;;19.80;12.67;;;20.70;99.90;;;21.39;100.00;97574.59;4960490;28;21221;-81
2023/07/12 04:26:31;;;;;;;18.13;11.37;;;20.70;99.90;;;21.41;100.00;97585.78;4960296;28;20461;-81
2023/07/12 04:29:02;;;;;;;24.90;11.70;;;20.70;99.90;;;21.36;100.00;97585.78;4957669;28;21341;-86
2023/07/12 04:31:32;;;;;;;26.97;13.43;;;20.70;99.90;;;21.34;100.00;97590.59;4956646;28;20483;-81
2023/07/12 04:34:02;;;;;;;19.37;13.00;;;20.70;99.90;;;21.34;100.00;97595.91;4956148;28;20495;-82
2023/07/12 04:36:32;;;;;;;22.40;13.17;;;20.60;99.90;;;21.35;100.00;97602.00;4962856;28;20469;-85
2023/07/12 04:39:03;;;;;;;20.20;12.33;;;20.60;99.90;;;21.31;100.00;97615.03;4962428;28;20487;-85
2023/07/12 04:41:32;;;;;;;19.83;13.20;;;20.60;99.90;;;21.29;100.00;97605.72;4963993;28;20465;-85
2023/07/12 04:44:02;;;;;;;19.93;12.80;;;20.60;99.90;;;21.29;100.00;97617.16;4962090;28;20501;-85
2023/07/12 04:46:33;;;;;;;18.37;13.30;;;20.60;99.90;;;21.24;100.00;97625.13;4961971;28;20534;-85
2023/07/12 04:49:02;;;;;;;20.57;14.47;;;20.60;99.90;;;21.27;100.00;97637.13;4961947;28;20548;-85
2023/07/12 04:51:31;;;;;;;20.70;13.50;;;20.50;99.90;;;21.26;100.00;97632.88;4962931;28;20481;-85
2023/07/12 04:54:03;;;;;;;19.07;12.33;;;20.50;99.90;;;21.28;100.00;97642.16;4962849;28;21169;-85
2023/07/12 04:56:33;;;;;;;20.43;13.37;;;20.50;99.90;;;21.30;100.00;97648.03;4961535;28;20886;-84
2023/07/12 04:59:02;;;;;;;17.47;13.67;;;20.50;99.90;;;21.32;100.00;97659.19;4962351;28;20473;-85
2023/07/12 05:01:34;;;;;;;21.87;13.67;;;20.50;99.90;;;21.33;100.00;97663.47;4963200;28;20469;-86
2023/07/12 05:04:06;;;;;;;23.03;13.33;;;20.60;99.90;;;21.31;100.00;97662.16;4959815;28;20575;-85
2023/07/12 05:06:37;;;;;;;27.10;13.30;;;20.60;99.90;;;21.32;100.00;97667.19;4964624;28;20813;-85
2023/07/12 05:09:09;;;;;;;22.07;14.30;;;20.60;99.90;;;21.33;100.00;97660.81;4961866;28;20465;-85
2023/07/12 05:11:40;;;;;;;24.57;13.90;;;20.60;99.90;;;21.36;100.00;97670.91;4962810;28;20475;-85
2023/07/12 05:14:10;;;;;;;23.00;12.90;;;20.60;99.90;;;21.38;100.00;97682.06;4961987;28;21015;-86
2023/07/12 05:16:41;;;;;;;18.70;13.93;;;20.60;99.90;;;21.38;100.00;97682.06;4960031;28;20960;-85
2023/07/12 05:19:11;;;;;;;20.20;13.87;;;20.60;99.90;;;21.41;100.00;97681.56;4962612;28;20465;-85
2023/07/12 05:21:40;;;;;;;17.73;12.80;;;20.60;99.90;;;21.42;100.00;97683.16;4960478;28;20465;-85
2023/07/12 05:24:11;;;;;;;20.77;13.77;;;20.60;99.90;;;21.46;100.00;97681.56;4960808;28;20507;-85
2023/07/12 05:26:41;;;;;;;29.97;13.87;;;20.70;99.90;;;21.48;100.00;97687.44;4960031;28;20457;-85
2023/07/12 05:29:13;;;;;;;26.03;13.97;;;20.70;99.90;;;21.53;100.00;97687.41;4960767;28;20462;-85
2023/07/12 05:31:44;;;;;;;20.50;11.40;;;20.80;99.90;;;21.58;100.00;97692.75;4959067;28;20467;-85
2023/07/12 05:34:13;;;;;;;17.37;11.00;;;20.80;99.90;;;21.58;100.00;97691.94;4967201;28;20552;-85
2023/07/12 05:36:45;;;;;;;18.63;11.30;;;20.90;99.90;;;21.61;100.00;97698.59;4966425;28;21180;-85
2023/07/12 05:39:17;;;;;;;16.20;11.10;;;20.90;99.90;;;21.62;100.00;97705.53;4966008;28;20482;-85
2023/07/12 05:41:48;;;;;;;17.63;10.93;;;20.90;99.90;;;21.63;100.00;97709.75;4967418;28;20496;-85
2023/07/12 05:44:17;;;;;;;16.30;11.17;;;20.90;99.90;;;21.66;100.00;97712.69;4964891;28;20577;-85
2023/07/12 05:46:47;;;;;;;18.70;11.40;;;20.90;99.90;;;21.66;100.00;97714.59;4964086;28;20476;-85
2023/07/12 05:49:18;;;;;;;16.20;10.77;;;20.90;99.90;;;21.66;100.00;97703.94;4964937;28;20461;-85
2023/07/12 05:51:48;;;;;;;12.87;10.20;;;20.90;99.90;;;21.68;100.00;97705.25;4961679;28;20465;-85
2023/07/12 05:54:20;;;;;;;19.33;11.10;;;20.90;99.90;;;21.68;100.00;97701.78;4966008;28;20476;-83
2023/07/12 05:56:50;;;;;;;23.63;10.80;;;21.00;99.90;;;21.69;100.00;97700.75;4963952;28;20553;-85
2023/07/12 05:59:20;;;;;;;22.90;12.57;;;20.90;99.90;;;21.70;100.00;97702.31;4965636;28;20470;-86
2023/07/12 06:01:50;;;;;;;21.07;11.03;;;20.90;99.90;;;21.72;100.00;97700.19;4963320;28;20483;-86
2023/07/12 06:04:24;;;;;;;19.93;12.40;;;21.00;99.90;;;21.71;100.00;97709.25;4963288;28;20505;-86
2023/07/12 06:06:55;;;;;;;16.83;11.13;;;21.00;99.90;;;21.74;100.00;97719.34;4965689;28;20477;-85
2023/07/12 06:09:27;;;;;;;21.37;10.60;;;21.00;99.90;;;21.75;100.00;97715.63;4963442;28;20464;-85
2023/07/12 06:11:57;;;;;;;18.80;10.60;;;21.00;99.90;;;21.73;100.00;97713.22;4957486;28;21051;-85
2023/07/12 06:14:27;;;;;;;21.27;11.53;;;21.10;99.90;;;21.75;100.00;97715.63;4962870;28;20465;-85
2023/07/12 06:16:58;;;;;;;15.60;10.40;;;21.00;99.90;;;21.79;100.00;97711.38;4958116;28;20473;-85
2023/07/12 06:19:28;;;;;;;18.87;10.80;;;21.00;99.90;;;21.81;100.00;97719.88;4962891;28;20464;-85
2023/07/12 06:21:59;;;;;;;18.50;11.30;;;21.10;99.90;;;21.84;100.00;97724.69;4962101;28;20461;-85
2023/07/12 06:24:31;;;;;;;13.53;9.23;;;21.10;99.90;;;21.88;100.00;97720.41;4963882;28;21028;-86
2023/07/12 06:27:02;;;;;;;12.93;9.23;;;21.10;99.90;;;21.91;100.00;97717.25;4963717;28;20457;-86
2023/07/12 06:29:32;;;;;;;13.93;9.37;;;21.20;99.90;;;21.95;100.00;97715.66;4964984;28;20476;-85
2023/07/12 06:32:00;;;;;;;14.70;8.90;;;21.20;99.90;;;21.96;100.00;97723.38;4963644;28;20832;-85
2023/07/12 06:34:32;;;;;;;12.67;9.20;;;21.20;99.90;;;21.99;100.00;97708.72;4968150;28;20566;-85
2023/07/12 06:37:02;;;;;;;11.97;8.40;;;21.30;99.90;;;22.02;100.00;97710.84;4968728;28;20464;-85
2023/07/12 06:39:35;;;;;;;10.10;7.67;;;21.30;99.90;;;22.03;100.00;97715.94;4966256;28;20524;-85
2023/07/12 06:42:05;;;;;;;11.63;7.53;;;21.30;99.90;;;22.03;100.00;97707.94;4966362;28;20556;-85
2023/07/12 06:44:35;;;;;;;12.80;6.20;;;21.30;99.90;;;22.05;100.00;97713.78;4966684;28;20504;-85
2023/07/12 06:47:06;;;;;;;8.30;4.30;;;21.40;99.90;;;21.97;100.00;97711.66;4968216;28;20468;-85
2023/07/12 06:49:37;;;;;;;15.40;4.30;;;21.40;99.90;;;21.97;100.00;97714.31;4967991;28;20468;-85
2023/07/12 06:52:11;;;;;;;18.30;5.00;;;21.40;99.90;;;22.01;100.00;97714.56;4964676;28;20975;-85
2023/07/12 06:54:43;;;;;;;8.13;3.67;;;21.40;99.90;;;22.04;100.00;97712.16;4965067;28;20466;-85
2023/07/12 06:57:13;;;;;;;7.13;3.80;;;21.40;99.90;;;21.92;100.00;97708.22;4967575;28;20474;-85
2023/07/12 06:59:44;;;;;;;6.70;3.90;;;21.50;99.90;;;21.89;100.00;97708.72;4966846;28;20481;-85
2023/07/12 07:02:14;;;;;;;7.67;3.00;;;21.50;99.90;;;21.96;100.00;97710.06;4969125;28;20559;-86
2023/07/12 07:04:45;;;;;;;4.20;3.07;;;21.40;99.90;;;21.97;100.00;97718.88;4965428;28;20489;-85
2023/07/12 07:07:17;;;;;;;6.30;2.73;;;21.40;99.90;;;21.96;100.00;97726.06;4964711;28;20461;-86
2023/07/12 07:09:48;;;;;;;3.77;2.50;;;21.40;99.90;;;21.92;100.00;97718.84;4963861;28;20461;-86
2023/07/12 07:12:19;;;;;;;5.03;2.20;;;21.50;99.90;;;21.95;100.00;97718.31;4963205;28;20484;-86
2023/07/12 07:14:50;;;;;;;6.00;2.43;;;21.50;99.90;;;21.93;100.00;97718.59;4966266;28;20478;-85
2023/07/12 07:17:21;;;;;;;5.63;2.70;;;21.50;99.90;;;22.02;100.00;97722.31;4963640;28;20492;-85
2023/07/12 07:19:51;;;;;;;9.27;2.80;;;21.40;99.90;;;22.09;100.00;97722.03;4964737;28;20469;-85
2023/07/12 07:22:22;;;;;;;3.53;2.73;;;21.50;99.90;;;22.11;100.00;97727.09;4964762;28;20479;-85
2023/07/12 07:24:54;;;;;;;5.77;2.47;;;21.50;99.90;;;22.09;100.00;97722.03;4964209;28;20846;-85
2023/07/12 07:27:23;;;;;;;3.50;2.70;;;21.60;99.90;;;22.14;100.00;97729.22;4963834;28;20470;-86
2023/07/12 07:29:55;;;;;;;6.90;3.00;;;21.60;99.90;;;22.13;100.00;97741.75;4961457;28;20454;-85
2023/07/12 07:32:24;;;;;;;5.83;2.40;;;21.60;99.90;;;22.22;100.00;97740.13;4964049;28;20817;-85
2023/07/12 07:34:55;;;;;;;5.37;2.30;;;21.60;99.90;;;22.28;100.00;97730.28;4963261;28;20465;-85
2023/07/12 07:37:25;;;;;;;4.00;2.43;;;21.70;99.90;;;22.26;100.00;97738.53;4965057;28;20482;-85
2023/07/12 07:39:57;;;;;;;2.73;2.10;;;21.80;99.90;;;22.33;100.00;97735.56;4965157;28;20514;-85
2023/07/12 07:42:27;;;;;;;11.00;2.80;;;21.70;99.90;;;22.39;100.00;97737.97;4963921;28;20849;-85
2023/07/12 07:44:58;;;;;;;3.53;2.40;;;21.80;99.90;;;22.38;100.00;97735.56;4963939;28;20497;-86
2023/07/12 07:47:29;;;;;;;3.60;2.53;;;21.80;99.90;;;22.39;100.00;97737.16;4966563;28;20564;-86
2023/07/12 07:49:58;;;;;;;3.40;1.93;;;21.90;99.90;;;22.37;100.00;97729.44;4966513;28;20469;-85
2023/07/12 07:52:30;;;;;;;7.00;2.40;;;22.00;99.90;;;22.41;100.00;97735.84;4965581;28;20473;-85
2023/07/12 07:55:02;;;;;;;8.23;2.33;;;22.00;99.90;;;22.43;100.00;97735.53;4967379;28;20468;-85
2023/07/12 07:57:33;;;;;;;7.27;1.90;;;22.00;99.90;;;22.43;100.00;97739.00;4966555;28;20845;-85
2023/07/12 08:00:07;;;;;;;3.30;1.70;;;22.00;99.90;;;22.48;100.00;97739.00;4967304;28;20831;-85
2023/07/12 08:02:37;;;;;;;3.40;2.10;;;22.00;99.90;;;22.49;100.00;97737.94;4965220;28;20459;-85
2023/07/12 08:05:09;;;;;;;3.60;1.93;;;22.00;99.90;;;22.52;100.00;97734.75;4963902;28;20528;-85
2023/07/12 08:07:41;;;;;;;4.40;2.20;;;22.00;99.90;;;22.53;100.00;97749.66;4966451;28;20544;-85
2023/07/12 08:10:17;;;;;;;17.63;2.00;;;22.10;99.90;;;22.53;100.00;97738.97;4967046;28;20554;-86
2023/07/12 08:12:50;;;;;;;2.63;1.80;;;22.20;99.90;;;22.59;100.00;97735.22;4963942;28;20476;-85
2023/07/12 08:15:21;;;;;;;3.50;1.70;;;22.10;99.90;;;22.63;100.00;97729.38;4964721;28;20475;-85
2023/07/12 08:17:51;;;;;;;1.97;1.53;;;22.10;99.90;;;22.60;100.00;97744.03;4972239;28;20471;-86
2023/07/12 08:20:22;;;;;;;2.33;1.70;;;22.20;99.90;;;22.66;100.00;97737.63;4968278;28;20583;-85
2023/07/12 08:22:53;;;;;;;3.93;1.60;;;22.20;99.90;;;22.65;100.00;97737.88;4962469;28;20567;-87
2023/07/12 08:25:25;;;;;;;4.17;1.57;;;22.20;99.90;;;22.71;100.00;97729.63;4959615;28;20509;-85
2023/07/12 08:27:55;;;;;;;2.07;1.40;;;22.20;99.90;;;22.73;100.00;97738.16;4960636;28;20460;-85
2023/07/12 08:30:25;;;;;;;3.87;1.77;;;22.20;99.90;;;22.75;100.00;97737.88;4960559;28;20476;-85
2023/07/12 08:32:55;;;;;;;3.00;1.90;;;22.20;99.90;;;22.73;100.00;97740.03;4959726;28;20471;-86
2023/07/12 08:35:26;;;;;;;2.87;1.90;;;22.30;99.90;;;22.77;100.00;97749.09;4966650;28;20497;-86
2023/07/12 08:38:15;;;;;;;3.10;1.57;;;22.30;99.90;;;22.82;100.00;97754.38;4963493;28;21105;-85
2023/07/12 08:40:49;;;;;;;4.67;1.80;;;22.30;99.90;;;22.90;100.00;97756.50;4967353;28;20522;-86
2023/07/12 08:43:22;;;;;;;3.30;1.73;;;22.30;99.90;;;22.94;100.00;97752.22;4963683;28;20479;-86
2023/07/12 08:45:56;;;;;;;2.03;1.50;;;22.40;99.90;;;22.91;100.00;97760.75;4964841;28;20500;-85
2023/07/12 08:48:27;;;;;;;8.50;2.13;;;22.40;99.90;;;23.00;100.00;97753.78;4964470;28;20487;-86
2023/07/12 08:50:57;;;;;;;2.27;1.40;;;22.40;99.90;;;22.99;100.00;97752.97;4965434;28;20465;-86
2023/07/12 08:53:30;;;;;;;3.40;1.67;;;22.50;99.90;;;22.99;100.00;97762.84;4965976;28;20484;-86
2023/07/12 08:56:02;;;;;;;1.90;1.57;;;22.40;99.90;;;23.04;100.00;97754.84;4963364;28;20473;-86
2023/07/12 08:58:38;;;;;;;3.63;1.70;;;22.50;99.90;;;23.11;100.00;97757.22;4966553;28;20504;-86
2023/07/12 09:01:14;;;;;;;3.03;1.67;;;22.70;99.90;;;23.20;100.00;97758.22;4963882;28;20496;-86
2023/07/12 09:03:43;;;;;;;2.43;1.50;;;22.70;99.90;;;23.21;100.00;97765.97;4964323;28;20465;-86
2023/07/12 09:06:14;;;;;;;3.40;1.80;;;22.70;99.90;;;23.18;100.00;97774.53;4964790;28;20504;-85
2023/07/12 09:08:49;;;;;;;2.97;1.80;;;22.70;99.90;;;23.16;100.00;97773.97;4965422;28;20465;-86
2023/07/12 09:11:30;;;;;;;4.00;1.77;;;22.70;99.90;;;23.11;100.00;97774.03;4962174;28;20492;-86
2023/07/12 09:14:00;;;;;;;3.00;1.70;;;22.70;99.90;;;23.14;100.00;97778.81;4960801;28;20901;-85
2023/07/12 09:16:34;;;;;;;4.23;1.50;;;22.70;99.90;;;23.11;100.00;97776.69;4962898;28;20495;-86
2023/07/12 09:19:15;;;;;;;2.03;1.30;;;22.70;99.90;;;23.22;100.00;97778.22;4962944;28;20480;-86
2023/07/12 09:21:51;;;;;;;2.33;1.53;;;22.60;99.90;;;23.27;100.00;97775.53;4959598;28;20465;-86
2023/07/12 09:24:26;;;;;;;3.30;1.30;;;22.70;99.90;;;23.29;100.00;97775.28;4963585;28;20480;-85
2023/07/12 09:27:05;;;;;;;3.47;1.63;;;22.80;99.90;;;23.27;100.00;97782.72;4963722;28;20464;-85
2023/07/12 09:29:37;;;;;;;1.90;1.20;;;22.80;99.90;;;23.32;100.00;97788.06;4960911;28;20503;-86
2023/07/12 09:32:19;;;;;;;6.30;1.40;;;22.80;99.90;;;23.32;100.00;97788.88;4961354;28;20986;-85
2023/07/12 09:34:50;;;;;;;2.27;1.70;;;22.80;99.90;;;23.40;100.00;97784.78;4960682;28;21010;-86
2023/07/12 09:37:23;;;;;;;3.40;1.70;;;22.90;99.90;;;23.43;100.00;97793.06;4961228;28;20472;-86
2023/07/12 09:39:58;;;;;;;3.77;1.53;;;23.00;99.90;;;23.42;100.00;97796.84;4965009;28;20469;-86
2023/07/12 09:42:31;;;;;;;3.93;1.30;;;22.90;99.90;;;23.51;100.00;97784.50;4963811;28;20499;-86
2023/07/12 09:45:04;;;;;;;4.03;1.83;;;23.00;99.90;;;23.59;100.00;97795.66;4964236;28;20488;-86
2023/07/12 09:47:45;;;;;;;3.83;1.17;;;23.10;99.90;;;23.61;100.00;97798.84;4964924;28;20533;-85
2023/07/12 09:50:22;;;;;;;3.13;1.40;;;23.00;99.90;;;23.56;99.93;97794.34;4965713;28;20469;-86
2023/07/12 09:53:05;;;;;;;6.30;1.57;;;23.00;99.90;;;23.60;99.97;97797.28;4962752;28;20456;-86
2023/07/12 09:55:51;;;;;;;1.63;1.27;;;23.10;99.90;;;23.65;100.00;97810.56;4965516;28;20460;-86
2023/07/12 09:58:33;;;;;;;2.20;1.30;;;23.10;99.90;;;23.66;100.00;97804.16;4968608;28;20529;-85
2023/07/12 10:01:18;;;;;;;3.50;1.97;;;23.10;99.90;;;23.71;100.00;97796.09;4964881;28;20544;-86
2023/07/12 10:03:55;;;;;;;2.67;1.33;;;23.20;99.90;;;23.75;100.00;97799.81;4966637;28;20472;-85
2023/07/12 10:06:38;;;;;;;5.00;1.67;;;23.20;99.90;;;23.80;100.00;97802.47;4969469;28;20490;-86
2023/07/12 10:09:15;;;;;;;1.30;1.10;;;23.20;99.90;;;23.89;100.00;97808.81;4963876;28;20472;-86
2023/07/12 10:11:53;;;;;;;2.27;1.50;;;23.30;99.90;;;23.92;100.00;97814.41;4967768;28;20479;-86
2023/07/12 10:14:35;;;;;;;1.70;1.40;;;23.30;99.90;;;23.85;98.00;97813.91;4961705;28;20504;-86
2023/07/12 10:17:13;;;;;;;1.77;1.37;;;23.40;99.90;;;23.86;95.44;97817.38;4961601;28;20570;-86
2023/07/12 10:19:48;;;;;;;2.73;1.47;;;23.30;99.90;;;23.86;96.17;97809.38;4963769;28;20514;-87
2023/07/12 10:22:29;;;;;;;1.67;1.13;;;23.20;99.90;;;23.89;97.10;97811.47;4963366;28;20465;-85
2023/07/12 10:25:02;;;;;;;3.20;1.40;;;23.20;99.90;;;23.92;96.47;97816.25;4960598;28;20864;-86
2023/07/12 10:27:46;;;;;;;2.37;1.40;;;23.30;99.90;;;23.93;93.86;97805.31;4960256;28;20461;-86